sensor_id;sensor_type;location;lat;lon;timestamp;temperature;humidity
54006;DHT22;39919;38.160;-122.260;2023-05-10T00:00:28;21.70;55.50
54006;DHT22;39919;38.160;-122.260;2023-05-10T00:02:58;21.70;55.60
54006;DHT22;39919;38.160;-122.260;2023-05-10T00:05:32;21.60;55.60
54006;DHT22;39919;38.160;-122.260;2023-05-10T00:08:02;21.60;55.30
54006;DHT22;39919;38.160;-122.260;2023-05-10T00:10:34;21.50;55.20
54006;DHT22;39919;38.160;-122.260;2023-05-10T00:13:04;21.50;55.30
54006;DHT22;39919;38.160;-122.260;2023-05-10T00:15:33;21.40;55.00
54006;DHT22;39919;38.160;-122.260;2023-05-10T00:18:02;21.40;55.00
54006;DHT22;39919;38.160;-122.260;2023-05-10T00:20:33;21.30;55.10
54006;DHT22;39919;38.160;-122.260;2023-05-10T00:23:05;21.30;55.30
54006;DHT22;39919;38.160;-122.260;2023-05-10T00:25:34;21.20;55.40
54006;DHT22;39919;38.160;-122.260;2023-05-10T00:28:03;21.20;55.30
54006;DHT22;39919;38.160;-122.260;2023-05-10T00:30:35;21.10;55.60
54006;DHT22;39919;38.160;-122.260;2023-05-10T00:33:04;21.10;56.10
54006;DHT22;39919;38.160;-122.260;2023-05-10T00:35:35;21.10;56.50
54006;DHT22;39919;38.160;-122.260;2023-05-10T00:38:06;21.00;56.30
54006;DHT22;39919;38.160;-122.260;2023-05-10T00:40:36;21.00;56.50
54006;DHT22;39919;38.160;-122.260;2023-05-10T00:43:06;20.90;56.60
54006;DHT22;39919;38.160;-122.260;2023-05-10T00:45:48;20.80;57.00
54006;DHT22;39919;38.160;-122.260;2023-05-10T00:48:17;20.80;57.50
54006;DHT22;39919;38.160;-122.260;2023-05-10T00:50:48;20.70;58.00
54006;DHT22;39919;38.160;-122.260;2023-05-10T00:53:19;20.60;57.80
54006;DHT22;39919;38.160;-122.260;2023-05-10T00:55:48;20.60;57.50
54006;DHT22;39919;38.160;-122.260;2023-05-10T00:58:17;20.60;57.30
54006;DHT22;39919;38.160;-122.260;2023-05-10T01:00:47;20.50;57.40
54006;DHT22;39919;38.160;-122.260;2023-05-10T01:03:19;20.50;57.60
54006;DHT22;39919;38.160;-122.260;2023-05-10T01:05:53;20.40;57.40
54006;DHT22;39919;38.160;-122.260;2023-05-10T01:08:23;20.30;57.40
54006;DHT22;39919;38.160;-122.260;2023-05-10T01:10:52;20.20;57.50
54006;DHT22;39919;38.160;-122.260;2023-05-10T01:13:32;20.20;57.40
54006;DHT22;39919;38.160;-122.260;2023-05-10T01:16:02;20.10;57.20
54006;DHT22;39919;38.160;-122.260;2023-05-10T01:18:31;20.10;57.30
54006;DHT22;39919;38.160;-122.260;2023-05-10T01:21:13;20.00;57.30
54006;DHT22;39919;38.160;-122.260;2023-05-10T01:24:06;19.90;57.70
54006;DHT22;39919;38.160;-122.260;2023-05-10T01:32:56;19.60;58.10
54006;DHT22;39919;38.160;-122.260;2023-05-10T01:35:36;19.50;58.60
54006;DHT22;39919;38.160;-122.260;2023-05-10T01:38:13;19.40;58.70
54006;DHT22;39919;38.160;-122.260;2023-05-10T01:40:52;19.40;58.40
54006;DHT22;39919;38.160;-122.260;2023-05-10T01:43:30;19.30;58.30
54006;DHT22;39919;38.160;-122.260;2023-05-10T01:46:05;19.20;58.50
54006;DHT22;39919;38.160;-122.260;2023-05-10T01:48:42;19.10;59.10
54006;DHT22;39919;38.160;-122.260;2023-05-10T01:51:14;19.00;59.10
54006;DHT22;39919;38.160;-122.260;2023-05-10T01:53:46;18.90;59.10
54006;DHT22;39919;38.160;-122.260;2023-05-10T01:56:17;18.90;59.30
54006;DHT22;39919;38.160;-122.260;2023-05-10T01:58:50;18.80;59.40
54006;DHT22;39919;38.160;-122.260;2023-05-10T02:01:22;18.70;59.70
54006;DHT22;39919;38.160;-122.260;2023-05-10T02:03:55;18.60;60.00
54006;DHT22;39919;38.160;-122.260;2023-05-10T02:06:25;18.60;60.50
54006;DHT22;39919;38.160;-122.260;2023-05-10T02:08:55;18.40;61.30
54006;DHT22;39919;38.160;-122.260;2023-05-10T02:11:26;18.40;61.10
54006;DHT22;39919;38.160;-122.260;2023-05-10T02:13:56;18.40;61.40
54006;DHT22;39919;38.160;-122.260;2023-05-10T02:16:27;18.30;61.40
54006;DHT22;39919;38.160;-122.260;2023-05-10T02:19:00;18.20;60.80
54006;DHT22;39919;38.160;-122.260;2023-05-10T02:21:32;18.10;61.10
54006;DHT22;39919;38.160;-122.260;2023-05-10T02:24:03;18.10;61.70
54006;DHT22;39919;38.160;-122.260;2023-05-10T02:26:33;18.00;61.70
54006;DHT22;39919;38.160;-122.260;2023-05-10T02:29:04;18.00;62.20
54006;DHT22;39919;38.160;-122.260;2023-05-10T02:31:35;17.90;62.80
54006;DHT22;39919;38.160;-122.260;2023-05-10T02:34:08;17.80;63.20
54006;DHT22;39919;38.160;-122.260;2023-05-10T02:36:39;17.80;63.70
54006;DHT22;39919;38.160;-122.260;2023-05-10T02:39:09;17.70;63.20
54006;DHT22;39919;38.160;-122.260;2023-05-10T02:41:41;17.70;63.30
54006;DHT22;39919;38.160;-122.260;2023-05-10T02:46:58;17.50;63.20
54006;DHT22;39919;38.160;-122.260;2023-05-10T02:49:29;17.50;63.40
54006;DHT22;39919;38.160;-122.260;2023-05-10T02:52:00;17.40;64.00
54006;DHT22;39919;38.160;-122.260;2023-05-10T02:54:36;17.30;64.20
54006;DHT22;39919;38.160;-122.260;2023-05-10T02:57:08;17.30;64.70
54006;DHT22;39919;38.160;-122.260;2023-05-10T02:59:40;17.20;65.00
54006;DHT22;39919;38.160;-122.260;2023-05-10T03:02:10;17.10;65.30
54006;DHT22;39919;38.160;-122.260;2023-05-10T03:04:41;17.00;65.40
54006;DHT22;39919;38.160;-122.260;2023-05-10T03:07:10;17.00;66.00
54006;DHT22;39919;38.160;-122.260;2023-05-10T03:09:40;16.90;66.70
54006;DHT22;39919;38.160;-122.260;2023-05-10T03:12:14;16.80;67.00
54006;DHT22;39919;38.160;-122.260;2023-05-10T03:14:52;16.70;66.20
54006;DHT22;39919;38.160;-122.260;2023-05-10T03:17:30;16.60;66.40
54006;DHT22;39919;38.160;-122.260;2023-05-10T03:20:06;16.60;66.70
54006;DHT22;39919;38.160;-122.260;2023-05-10T03:22:41;16.40;66.80
54006;DHT22;39919;38.160;-122.260;2023-05-10T03:25:12;16.40;67.20
54006;DHT22;39919;38.160;-122.260;2023-05-10T03:27:43;16.30;66.90
54006;DHT22;39919;38.160;-122.260;2023-05-10T03:30:13;16.20;67.40
54006;DHT22;39919;38.160;-122.260;2023-05-10T03:32:42;16.10;67.80
54006;DHT22;39919;38.160;-122.260;2023-05-10T03:35:13;16.10;68.40
54006;DHT22;39919;38.160;-122.260;2023-05-10T03:37:43;16.00;68.30
54006;DHT22;39919;38.160;-122.260;2023-05-10T03:40:12;15.90;68.80
54006;DHT22;39919;38.160;-122.260;2023-05-10T03:42:41;15.80;69.20
54006;DHT22;39919;38.160;-122.260;2023-05-10T03:45:11;15.80;69.30
54006;DHT22;39919;38.160;-122.260;2023-05-10T03:47:40;15.70;69.70
54006;DHT22;39919;38.160;-122.260;2023-05-10T03:50:09;15.60;69.70
54006;DHT22;39919;38.160;-122.260;2023-05-10T03:52:40;15.60;69.50
54006;DHT22;39919;38.160;-122.260;2023-05-10T03:55:12;15.50;69.80
54006;DHT22;39919;38.160;-122.260;2023-05-10T03:57:41;15.50;70.50
54006;DHT22;39919;38.160;-122.260;2023-05-10T04:00:11;15.40;69.90
54006;DHT22;39919;38.160;-122.260;2023-05-10T04:02:41;15.40;70.20
54006;DHT22;39919;38.160;-122.260;2023-05-10T04:05:10;15.30;70.50
54006;DHT22;39919;38.160;-122.260;2023-05-10T04:07:41;15.30;70.60
54006;DHT22;39919;38.160;-122.260;2023-05-10T04:10:11;15.20;70.20
54006;DHT22;39919;38.160;-122.260;2023-05-10T04:12:40;15.10;70.30
54006;DHT22;39919;38.160;-122.260;2023-05-10T04:15:10;15.10;71.00
54006;DHT22;39919;38.160;-122.260;2023-05-10T04:17:39;15.00;70.30
54006;DHT22;39919;38.160;-122.260;2023-05-10T04:20:09;15.00;70.70
54006;DHT22;39919;38.160;-122.260;2023-05-10T04:22:40;14.90;70.80
54006;DHT22;39919;38.160;-122.260;2023-05-10T04:25:09;14.90;70.60
54006;DHT22;39919;38.160;-122.260;2023-05-10T04:27:39;14.80;71.10
54006;DHT22;39919;38.160;-122.260;2023-05-10T04:30:09;14.80;71.40
54006;DHT22;39919;38.160;-122.260;2023-05-10T04:32:38;14.70;72.00
54006;DHT22;39919;38.160;-122.260;2023-05-10T04:35:08;14.70;72.50
54006;DHT22;39919;38.160;-122.260;2023-05-10T04:37:37;14.60;72.10
54006;DHT22;39919;38.160;-122.260;2023-05-10T04:40:09;14.60;72.20
54006;DHT22;39919;38.160;-122.260;2023-05-10T04:42:40;14.60;73.20
54006;DHT22;39919;38.160;-122.260;2023-05-10T04:45:10;14.60;73.30
54006;DHT22;39919;38.160;-122.260;2023-05-10T04:47:41;14.50;74.20
54006;DHT22;39919;38.160;-122.260;2023-05-10T04:50:10;14.50;73.80
54006;DHT22;39919;38.160;-122.260;2023-05-10T04:52:39;14.40;73.80
54006;DHT22;39919;38.160;-122.260;2023-05-10T04:55:10;14.40;74.10
54006;DHT22;39919;38.160;-122.260;2023-05-10T04:57:40;14.30;74.00
54006;DHT22;39919;38.160;-122.260;2023-05-10T05:00:10;14.30;74.10
54006;DHT22;39919;38.160;-122.260;2023-05-10T05:02:43;14.30;74.60
54006;DHT22;39919;38.160;-122.260;2023-05-10T05:05:12;14.20;74.70
54006;DHT22;39919;38.160;-122.260;2023-05-10T05:07:41;14.20;74.20
54006;DHT22;39919;38.160;-122.260;2023-05-10T05:10:12;14.20;74.70
54006;DHT22;39919;38.160;-122.260;2023-05-10T05:12:42;14.10;74.50
54006;DHT22;39919;38.160;-122.260;2023-05-10T05:15:11;14.10;75.10
54006;DHT22;39919;38.160;-122.260;2023-05-10T05:17:42;14.10;75.20
54006;DHT22;39919;38.160;-122.260;2023-05-10T05:20:11;14.10;75.00
54006;DHT22;39919;38.160;-122.260;2023-05-10T05:22:40;14.00;75.00
54006;DHT22;39919;38.160;-122.260;2023-05-10T05:25:11;14.00;75.10
54006;DHT22;39919;38.160;-122.260;2023-05-10T05:27:41;14.00;75.10
54006;DHT22;39919;38.160;-122.260;2023-05-10T05:30:11;13.90;75.20
54006;DHT22;39919;38.160;-122.260;2023-05-10T05:32:40;13.90;74.60
54006;DHT22;39919;38.160;-122.260;2023-05-10T05:35:09;13.90;74.70
54006;DHT22;39919;38.160;-122.260;2023-05-10T05:37:39;13.80;75.20
54006;DHT22;39919;38.160;-122.260;2023-05-10T05:40:14;13.80;75.90
54006;DHT22;39919;38.160;-122.260;2023-05-10T05:42:43;13.80;75.90
54006;DHT22;39919;38.160;-122.260;2023-05-10T05:45:15;13.80;75.70
54006;DHT22;39919;38.160;-122.260;2023-05-10T05:47:44;13.80;75.90
54006;DHT22;39919;38.160;-122.260;2023-05-10T05:50:16;13.70;75.60
54006;DHT22;39919;38.160;-122.260;2023-05-10T05:52:45;13.70;75.80
54006;DHT22;39919;38.160;-122.260;2023-05-10T05:55:16;13.70;75.90
54006;DHT22;39919;38.160;-122.260;2023-05-10T05:57:45;13.60;76.10
54006;DHT22;39919;38.160;-122.260;2023-05-10T06:00:15;13.60;76.50
54006;DHT22;39919;38.160;-122.260;2023-05-10T06:02:44;13.60;77.10
54006;DHT22;39919;38.160;-122.260;2023-05-10T06:05:13;13.60;77.10
54006;DHT22;39919;38.160;-122.260;2023-05-10T06:07:42;13.50;76.80
54006;DHT22;39919;38.160;-122.260;2023-05-10T06:10:11;13.50;76.70
54006;DHT22;39919;38.160;-122.260;2023-05-10T06:13:01;13.40;76.70
54006;DHT22;39919;38.160;-122.260;2023-05-10T06:15:44;13.40;76.50
54006;DHT22;39919;38.160;-122.260;2023-05-10T06:18:18;13.40;77.30
54006;DHT22;39919;38.160;-122.260;2023-05-10T06:20:56;13.40;77.20
54006;DHT22;39919;38.160;-122.260;2023-05-10T06:23:55;13.30;77.00
54006;DHT22;39919;38.160;-122.260;2023-05-10T06:26:46;13.30;77.00
54006;DHT22;39919;38.160;-122.260;2023-05-10T06:29:23;13.20;77.70
54006;DHT22;39919;38.160;-122.260;2023-05-10T06:31:56;13.30;77.60
54006;DHT22;39919;38.160;-122.260;2023-05-10T06:34:32;13.20;77.20
54006;DHT22;39919;38.160;-122.260;2023-05-10T06:37:09;13.20;78.10
54006;DHT22;39919;38.160;-122.260;2023-05-10T06:39:53;13.20;78.70
54006;DHT22;39919;38.160;-122.260;2023-05-10T06:42:29;13.10;78.70
54006;DHT22;39919;38.160;-122.260;2023-05-10T06:45:17;13.10;78.80
54006;DHT22;39919;38.160;-122.260;2023-05-10T06:47:54;13.10;78.70
54006;DHT22;39919;38.160;-122.260;2023-05-10T06:50:25;13.10;78.80
54006;DHT22;39919;38.160;-122.260;2023-05-10T06:52:57;13.10;79.20
54006;DHT22;39919;38.160;-122.260;2023-05-10T06:55:37;13.10;79.30
54006;DHT22;39919;38.160;-122.260;2023-05-10T06:58:08;13.00;79.40
54006;DHT22;39919;38.160;-122.260;2023-05-10T07:00:46;13.10;79.50
54006;DHT22;39919;38.160;-122.260;2023-05-10T07:03:20;13.00;79.70
54006;DHT22;39919;38.160;-122.260;2023-05-10T07:05:52;13.00;79.70
54006;DHT22;39919;38.160;-122.260;2023-05-10T07:08:31;13.00;79.70
54006;DHT22;39919;38.160;-122.260;2023-05-10T07:11:15;13.00;80.10
54006;DHT22;39919;38.160;-122.260;2023-05-10T07:13:47;13.00;80.00
54006;DHT22;39919;38.160;-122.260;2023-05-10T07:19:21;12.90;80.40
54006;DHT22;39919;38.160;-122.260;2023-05-10T07:21:58;12.90;80.30
54006;DHT22;39919;38.160;-122.260;2023-05-10T07:24:32;12.90;80.20
54006;DHT22;39919;38.160;-122.260;2023-05-10T07:27:10;12.90;80.40
54006;DHT22;39919;38.160;-122.260;2023-05-10T07:29:52;12.90;80.80
54006;DHT22;39919;38.160;-122.260;2023-05-10T07:32:26;12.90;81.10
54006;DHT22;39919;38.160;-122.260;2023-05-10T07:34:58;12.90;81.50
54006;DHT22;39919;38.160;-122.260;2023-05-10T07:37:42;12.80;81.80
54006;DHT22;39919;38.160;-122.260;2023-05-10T07:40:11;12.80;82.60
54006;DHT22;39919;38.160;-122.260;2023-05-10T07:42:40;12.80;82.50
54006;DHT22;39919;38.160;-122.260;2023-05-10T07:45:10;12.80;82.50
54006;DHT22;39919;38.160;-122.260;2023-05-10T07:47:44;12.80;81.90
54006;DHT22;39919;38.160;-122.260;2023-05-10T07:50:13;12.80;82.10
54006;DHT22;39919;38.160;-122.260;2023-05-10T07:52:42;12.80;81.90
54006;DHT22;39919;38.160;-122.260;2023-05-10T07:55:11;12.70;82.30
54006;DHT22;39919;38.160;-122.260;2023-05-10T07:57:41;12.70;82.30
54006;DHT22;39919;38.160;-122.260;2023-05-10T08:00:13;12.70;82.40
54006;DHT22;39919;38.160;-122.260;2023-05-10T08:02:47;12.70;83.00
54006;DHT22;39919;38.160;-122.260;2023-05-10T08:05:16;12.70;83.30
54006;DHT22;39919;38.160;-122.260;2023-05-10T08:07:45;12.60;83.30
54006;DHT22;39919;38.160;-122.260;2023-05-10T08:10:14;12.60;83.50
54006;DHT22;39919;38.160;-122.260;2023-05-10T08:12:43;12.60;84.60
54006;DHT22;39919;38.160;-122.260;2023-05-10T08:15:15;12.60;84.70
54006;DHT22;39919;38.160;-122.260;2023-05-10T08:17:46;12.60;85.00
54006;DHT22;39919;38.160;-122.260;2023-05-10T08:20:15;12.60;85.50
54006;DHT22;39919;38.160;-122.260;2023-05-10T08:22:46;12.60;85.70
54006;DHT22;39919;38.160;-122.260;2023-05-10T08:25:15;12.50;85.50
54006;DHT22;39919;38.160;-122.260;2023-05-10T08:27:49;12.50;85.90
54006;DHT22;39919;38.160;-122.260;2023-05-10T08:30:18;12.50;85.80
54006;DHT22;39919;38.160;-122.260;2023-05-10T08:32:49;12.50;85.50
54006;DHT22;39919;38.160;-122.260;2023-05-10T08:35:18;12.50;85.30
54006;DHT22;39919;38.160;-122.260;2023-05-10T08:37:47;12.50;85.50
54006;DHT22;39919;38.160;-122.260;2023-05-10T08:40:16;12.50;85.30
54006;DHT22;39919;38.160;-122.260;2023-05-10T08:42:54;12.40;85.20
54006;DHT22;39919;38.160;-122.260;2023-05-10T08:45:24;12.40;85.90
54006;DHT22;39919;38.160;-122.260;2023-05-10T08:47:57;12.40;85.80
54006;DHT22;39919;38.160;-122.260;2023-05-10T08:50:26;12.40;86.40
54006;DHT22;39919;38.160;-122.260;2023-05-10T08:52:57;12.40;86.80
54006;DHT22;39919;38.160;-122.260;2023-05-10T08:55:28;12.30;86.60
54006;DHT22;39919;38.160;-122.260;2023-05-10T08:57:57;12.30;86.20
54006;DHT22;39919;38.160;-122.260;2023-05-10T09:00:26;12.30;86.60
54006;DHT22;39919;38.160;-122.260;2023-05-10T09:02:58;12.30;87.50
54006;DHT22;39919;38.160;-122.260;2023-05-10T09:05:28;12.20;87.40
54006;DHT22;39919;38.160;-122.260;2023-05-10T09:07:57;12.30;87.80
54006;DHT22;39919;38.160;-122.260;2023-05-10T09:10:28;12.20;87.40
54006;DHT22;39919;38.160;-122.260;2023-05-10T09:12:58;12.20;88.20
54006;DHT22;39919;38.160;-122.260;2023-05-10T09:15:27;12.20;88.70
54006;DHT22;39919;38.160;-122.260;2023-05-10T09:17:58;12.20;88.70
54006;DHT22;39919;38.160;-122.260;2023-05-10T09:20:29;12.10;89.30
54006;DHT22;39919;38.160;-122.260;2023-05-10T09:22:58;12.10;89.90
54006;DHT22;39919;38.160;-122.260;2023-05-10T09:25:28;12.10;90.00
54006;DHT22;39919;38.160;-122.260;2023-05-10T09:27:57;12.10;89.90
54006;DHT22;39919;38.160;-122.260;2023-05-10T09:30:26;12.10;90.00
54006;DHT22;39919;38.160;-122.260;2023-05-10T09:32:58;12.00;89.60
54006;DHT22;39919;38.160;-122.260;2023-05-10T09:35:28;12.00;89.30
54006;DHT22;39919;38.160;-122.260;2023-05-10T09:37:59;11.90;89.20
54006;DHT22;39919;38.160;-122.260;2023-05-10T09:40:29;11.90;89.40
54006;DHT22;39919;38.160;-122.260;2023-05-10T09:43:00;11.90;90.10
54006;DHT22;39919;38.160;-122.260;2023-05-10T09:45:30;11.90;90.10
54006;DHT22;39919;38.160;-122.260;2023-05-10T09:48:02;11.90;90.00
54006;DHT22;39919;38.160;-122.260;2023-05-10T09:50:33;11.90;90.00
54006;DHT22;39919;38.160;-122.260;2023-05-10T09:53:03;11.80;90.40
54006;DHT22;39919;38.160;-122.260;2023-05-10T09:55:41;11.80;90.50
54006;DHT22;39919;38.160;-122.260;2023-05-10T09:58:14;11.80;90.80
54006;DHT22;39919;38.160;-122.260;2023-05-10T10:00:45;11.80;91.10
54006;DHT22;39919;38.160;-122.260;2023-05-10T10:03:20;11.80;91.00
54006;DHT22;39919;38.160;-122.260;2023-05-10T10:05:51;11.80;91.20
54006;DHT22;39919;38.160;-122.260;2023-05-10T10:08:25;11.70;91.00
54006;DHT22;39919;38.160;-122.260;2023-05-10T10:10:55;11.70;91.10
54006;DHT22;39919;38.160;-122.260;2023-05-10T10:13:24;11.70;91.80
54006;DHT22;39919;38.160;-122.260;2023-05-10T10:15:55;11.70;91.50
54006;DHT22;39919;38.160;-122.260;2023-05-10T10:18:25;11.70;92.00
54006;DHT22;39919;38.160;-122.260;2023-05-10T10:20:55;11.60;91.80
54006;DHT22;39919;38.160;-122.260;2023-05-10T10:23:25;11.60;92.10
54006;DHT22;39919;38.160;-122.260;2023-05-10T10:25:55;11.60;92.50
54006;DHT22;39919;38.160;-122.260;2023-05-10T10:28:34;11.60;92.70
54006;DHT22;39919;38.160;-122.260;2023-05-10T10:31:17;11.60;92.60
54006;DHT22;39919;38.160;-122.260;2023-05-10T10:33:59;11.60;92.20
54006;DHT22;39919;38.160;-122.260;2023-05-10T10:36:29;11.60;92.70
54006;DHT22;39919;38.160;-122.260;2023-05-10T10:39:01;11.60;93.30
54006;DHT22;39919;38.160;-122.260;2023-05-10T10:41:32;11.60;92.90
54006;DHT22;39919;38.160;-122.260;2023-05-10T10:44:23;11.60;92.80
54006;DHT22;39919;38.160;-122.260;2023-05-10T10:47:03;11.50;92.60
54006;DHT22;39919;38.160;-122.260;2023-05-10T10:49:48;11.50;92.20
54006;DHT22;39919;38.160;-122.260;2023-05-10T10:52:26;11.50;92.50
54006;DHT22;39919;38.160;-122.260;2023-05-10T10:55:01;11.50;92.80
54006;DHT22;39919;38.160;-122.260;2023-05-10T10:57:34;11.40;93.10
54006;DHT22;39919;38.160;-122.260;2023-05-10T11:00:38;11.50;93.50
54006;DHT22;39919;38.160;-122.260;2023-05-10T11:03:08;11.40;93.40
54006;DHT22;39919;38.160;-122.260;2023-05-10T11:05:42;11.40;93.90
54006;DHT22;39919;38.160;-122.260;2023-05-10T11:08:13;11.40;94.00
54006;DHT22;39919;38.160;-122.260;2023-05-10T11:11:02;11.40;94.00
54006;DHT22;39919;38.160;-122.260;2023-05-10T11:13:48;11.40;94.30
54006;DHT22;39919;38.160;-122.260;2023-05-10T11:16:19;11.40;94.60
54006;DHT22;39919;38.160;-122.260;2023-05-10T11:18:59;11.40;94.60
54006;DHT22;39919;38.160;-122.260;2023-05-10T11:21:32;11.40;94.60
54006;DHT22;39919;38.160;-122.260;2023-05-10T11:24:15;11.40;94.40
54006;DHT22;39919;38.160;-122.260;2023-05-10T11:26:44;11.40;94.40
54006;DHT22;39919;38.160;-122.260;2023-05-10T11:29:14;11.30;94.40
54006;DHT22;39919;38.160;-122.260;2023-05-10T11:31:44;11.30;94.60
54006;DHT22;39919;38.160;-122.260;2023-05-10T11:34:23;11.30;94.80
54006;DHT22;39919;38.160;-122.260;2023-05-10T11:36:55;11.30;94.80
54006;DHT22;39919;38.160;-122.260;2023-05-10T11:39:27;11.30;95.00
54006;DHT22;39919;38.160;-122.260;2023-05-10T11:41:59;11.30;94.80
54006;DHT22;39919;38.160;-122.260;2023-05-10T11:44:30;11.30;94.70
54006;DHT22;39919;38.160;-122.260;2023-05-10T11:47:02;11.30;94.80
54006;DHT22;39919;38.160;-122.260;2023-05-10T11:49:32;11.30;94.70
54006;DHT22;39919;38.160;-122.260;2023-05-10T11:52:09;11.20;94.30
54006;DHT22;39919;38.160;-122.260;2023-05-10T11:54:42;11.20;94.60
54006;DHT22;39919;38.160;-122.260;2023-05-10T11:57:13;11.20;94.70
54006;DHT22;39919;38.160;-122.260;2023-05-10T11:59:42;11.20;94.60
54006;DHT22;39919;38.160;-122.260;2023-05-10T12:02:12;11.20;94.80
54006;DHT22;39919;38.160;-122.260;2023-05-10T12:04:42;11.20;95.10
54006;DHT22;39919;38.160;-122.260;2023-05-10T12:07:13;11.20;95.40
54006;DHT22;39919;38.160;-122.260;2023-05-10T12:09:43;11.20;95.50
54006;DHT22;39919;38.160;-122.260;2023-05-10T12:12:17;11.20;95.70
54006;DHT22;39919;38.160;-122.260;2023-05-10T12:14:50;11.20;95.60
54006;DHT22;39919;38.160;-122.260;2023-05-10T12:17:19;11.10;95.60
54006;DHT22;39919;38.160;-122.260;2023-05-10T12:19:49;11.10;95.70
54006;DHT22;39919;38.160;-122.260;2023-05-10T12:22:23;11.20;95.70
54006;DHT22;39919;38.160;-122.260;2023-05-10T12:24:55;11.10;95.80
54006;DHT22;39919;38.160;-122.260;2023-05-10T12:27:24;11.10;95.60
54006;DHT22;39919;38.160;-122.260;2023-05-10T12:29:53;11.10;95.50
54006;DHT22;39919;38.160;-122.260;2023-05-10T12:32:38;11.10;95.40
54006;DHT22;39919;38.160;-122.260;2023-05-10T12:35:08;11.10;95.30
54006;DHT22;39919;38.160;-122.260;2023-05-10T12:37:42;11.00;95.30
54006;DHT22;39919;38.160;-122.260;2023-05-10T12:40:14;11.00;95.30
54006;DHT22;39919;38.160;-122.260;2023-05-10T12:42:43;11.00;95.10
54006;DHT22;39919;38.160;-122.260;2023-05-10T12:45:13;11.00;95.20
54006;DHT22;39919;38.160;-122.260;2023-05-10T12:47:45;11.00;95.30
54006;DHT22;39919;38.160;-122.260;2023-05-10T12:50:14;11.00;95.10
54006;DHT22;39919;38.160;-122.260;2023-05-10T12:52:47;11.00;95.00
54006;DHT22;39919;38.160;-122.260;2023-05-10T12:55:16;11.00;95.50
54006;DHT22;39919;38.160;-122.260;2023-05-10T12:57:45;11.00;95.40
54006;DHT22;39919;38.160;-122.260;2023-05-10T13:00:18;10.90;95.00
54006;DHT22;39919;38.160;-122.260;2023-05-10T13:02:47;11.00;95.20
54006;DHT22;39919;38.160;-122.260;2023-05-10T13:05:20;10.90;95.00
54006;DHT22;39919;38.160;-122.260;2023-05-10T13:07:51;10.90;95.00
54006;DHT22;39919;38.160;-122.260;2023-05-10T13:10:22;10.90;95.10
54006;DHT22;39919;38.160;-122.260;2023-05-10T13:12:52;11.00;95.20
54006;DHT22;39919;38.160;-122.260;2023-05-10T13:15:23;10.90;95.30
54006;DHT22;39919;38.160;-122.260;2023-05-10T13:17:55;11.00;95.50
54006;DHT22;39919;38.160;-122.260;2023-05-10T13:20:27;11.00;95.60
54006;DHT22;39919;38.160;-122.260;2023-05-10T13:22:58;11.00;95.70
54006;DHT22;39919;38.160;-122.260;2023-05-10T13:25:27;11.00;95.60
54006;DHT22;39919;38.160;-122.260;2023-05-10T13:27:56;11.00;96.00
54006;DHT22;39919;38.160;-122.260;2023-05-10T13:30:25;11.00;95.90
54006;DHT22;39919;38.160;-122.260;2023-05-10T13:32:55;11.10;96.10
54006;DHT22;39919;38.160;-122.260;2023-05-10T13:35:24;11.10;95.90
54006;DHT22;39919;38.160;-122.260;2023-05-10T13:37:54;11.10;96.40
54006;DHT22;39919;38.160;-122.260;2023-05-10T13:40:26;11.20;96.20
54006;DHT22;39919;38.160;-122.260;2023-05-10T13:42:55;11.20;96.10
54006;DHT22;39919;38.160;-122.260;2023-05-10T13:45:24;11.20;96.20
54006;DHT22;39919;38.160;-122.260;2023-05-10T13:47:56;11.30;96.30
54006;DHT22;39919;38.160;-122.260;2023-05-10T13:50:32;11.30;96.30
54006;DHT22;39919;38.160;-122.260;2023-05-10T13:53:01;11.30;95.90
54006;DHT22;39919;38.160;-122.260;2023-05-10T13:55:32;11.40;95.70
54006;DHT22;39919;38.160;-122.260;2023-05-10T13:58:03;11.50;95.50
54006;DHT22;39919;38.160;-122.260;2023-05-10T14:00:36;11.50;95.30
54006;DHT22;39919;38.160;-122.260;2023-05-10T14:03:08;11.50;95.40
54006;DHT22;39919;38.160;-122.260;2023-05-10T14:05:37;11.60;95.40
54006;DHT22;39919;38.160;-122.260;2023-05-10T14:08:06;11.70;95.60
54006;DHT22;39919;38.160;-122.260;2023-05-10T14:10:37;11.80;95.70
54006;DHT22;39919;38.160;-122.260;2023-05-10T14:13:07;11.80;95.70
54006;DHT22;39919;38.160;-122.260;2023-05-10T14:15:36;11.90;95.70
54006;DHT22;39919;38.160;-122.260;2023-05-10T14:18:05;11.90;95.60
54006;DHT22;39919;38.160;-122.260;2023-05-10T14:20:34;12.10;95.40
54006;DHT22;39919;38.160;-122.260;2023-05-10T14:23:03;12.10;95.20
54006;DHT22;39919;38.160;-122.260;2023-05-10T14:25:32;12.20;95.00
54006;DHT22;39919;38.160;-122.260;2023-05-10T14:28:03;12.40;94.70
54006;DHT22;39919;38.160;-122.260;2023-05-10T14:30:32;12.50;94.30
54006;DHT22;39919;38.160;-122.260;2023-05-10T14:33:02;12.60;93.80
54006;DHT22;39919;38.160;-122.260;2023-05-10T14:35:31;12.80;93.30
54006;DHT22;39919;38.160;-122.260;2023-05-10T14:38:03;12.90;92.90
54006;DHT22;39919;38.160;-122.260;2023-05-10T14:40:32;13.00;92.50
54006;DHT22;39919;38.160;-122.260;2023-05-10T14:43:03;13.10;92.10
54006;DHT22;39919;38.160;-122.260;2023-05-10T14:45:32;13.30;91.90
54006;DHT22;39919;38.160;-122.260;2023-05-10T14:48:04;13.40;91.70
54006;DHT22;39919;38.160;-122.260;2023-05-10T14:50:37;13.60;91.60
54006;DHT22;39919;38.160;-122.260;2023-05-10T14:53:07;13.80;91.30
54006;DHT22;39919;38.160;-122.260;2023-05-10T14:55:36;14.00;91.00
54006;DHT22;39919;38.160;-122.260;2023-05-10T14:58:06;14.10;90.10
54006;DHT22;39919;38.160;-122.260;2023-05-10T15:00:36;14.20;89.60
54006;DHT22;39919;38.160;-122.260;2023-05-10T15:03:05;14.30;88.20
54006;DHT22;39919;38.160;-122.260;2023-05-10T15:05:34;14.40;87.00
54006;DHT22;39919;38.160;-122.260;2023-05-10T15:08:06;14.40;86.30
54006;DHT22;39919;38.160;-122.260;2023-05-10T15:10:36;14.50;85.50
54006;DHT22;39919;38.160;-122.260;2023-05-10T15:13:08;14.50;84.90
54006;DHT22;39919;38.160;-122.260;2023-05-10T15:15:37;14.50;84.50
54006;DHT22;39919;38.160;-122.260;2023-05-10T15:18:06;14.60;84.00
54006;DHT22;39919;38.160;-122.260;2023-05-10T15:20:38;14.60;83.60
54006;DHT22;39919;38.160;-122.260;2023-05-10T15:23:07;14.70;83.80
54006;DHT22;39919;38.160;-122.260;2023-05-10T15:25:36;14.80;83.80
54006;DHT22;39919;38.160;-122.260;2023-05-10T15:28:07;14.80;83.50